sensor_id;sensor_type;location;lat;lon;timestamp;P1;durP1;ratioP1;P2;durP2;ratioP2
77298;SDS011;66361;52.034;20.656;2023-10-31T00:06:06;20.45;;;13.45;;
77298;SDS011;66361;52.034;20.656;2023-10-31T00:10:11;23.60;;;13.35;;
77298;SDS011;66361;52.034;20.656;2023-10-31T00:14:14;22.00;;;13.00;;
77298;SDS011;66361;52.034;20.656;2023-10-31T00:18:31;23.10;;;13.70;;
77298;SDS011;66361;52.034;20.656;2023-10-31T00:22:34;23.13;;;13.90;;
77298;SDS011;66361;52.034;20.656;2023-10-31T00:26:38;24.27;;;13.95;;
77298;SDS011;66361;52.034;20.656;2023-10-31T00:30:41;20.15;;;14.40;;
77298;SDS011;66361;52.034;20.656;2023-10-31T00:38:47;24.13;;;14.13;;
77298;SDS011;66361;52.034;20.656;2023-10-31T00:42:51;24.42;;;14.27;;
77298;SDS011;66361;52.034;20.656;2023-10-31T00:46:55;19.70;;;13.48;;
77298;SDS011;66361;52.034;20.656;2023-10-31T00:50:58;23.20;;;13.73;;
77298;SDS011;66361;52.034;20.656;2023-10-31T00:55:01;23.75;;;14.18;;
77298;SDS011;66361;52.034;20.656;2023-10-31T00:59:06;20.85;;;14.25;;
77298;SDS011;66361;52.034;20.656;2023-10-31T01:03:09;20.23;;;13.68;;
77298;SDS011;66361;52.034;20.656;2023-10-31T01:07:12;22.48;;;13.38;;
77298;SDS011;66361;52.034;20.656;2023-10-31T01:11:18;23.25;;;13.85;;
77298;SDS011;66361;52.034;20.656;2023-10-31T01:15:22;21.73;;;14.55;;
77298;SDS011;66361;52.034;20.656;2023-10-31T01:19:26;21.25;;;13.32;;
77298;SDS011;66361;52.034;20.656;2023-10-31T01:23:28;16.75;;;10.82;;
77298;SDS011;66361;52.034;20.656;2023-10-31T01:27:32;20.13;;;12.32;;
77298;SDS011;66361;52.034;20.656;2023-10-31T01:35:56;20.33;;;12.98;;
77298;SDS011;66361;52.034;20.656;2023-10-31T01:39:59;24.95;;;14.10;;
77298;SDS011;66361;52.034;20.656;2023-10-31T01:44:02;10.75;;;7.88;;
77298;SDS011;66361;52.034;20.656;2023-10-31T01:48:07;15.65;;;11.68;;
77298;SDS011;66361;52.034;20.656;2023-10-31T01:52:13;16.40;;;11.40;;
77298;SDS011;66361;52.034;20.656;2023-10-31T01:56:17;16.38;;;12.30;;
77298;SDS011;66361;52.034;20.656;2023-10-31T02:00:21;18.98;;;11.02;;
77298;SDS011;66361;52.034;20.656;2023-10-31T02:04:26;13.95;;;9.50;;
77298;SDS011;66361;52.034;20.656;2023-10-31T02:08:29;15.15;;;11.90;;
77298;SDS011;66361;52.034;20.656;2023-10-31T02:16:36;13.15;;;10.05;;
77298;SDS011;66361;52.034;20.656;2023-10-31T02:20:40;13.63;;;10.10;;
77298;SDS011;66361;52.034;20.656;2023-10-31T02:24:45;12.05;;;9.68;;
77298;SDS011;66361;52.034;20.656;2023-10-31T02:28:49;14.10;;;10.15;;
77298;SDS011;66361;52.034;20.656;2023-10-31T02:32:52;14.40;;;10.13;;
77298;SDS011;66361;52.034;20.656;2023-10-31T02:36:55;15.02;;;10.27;;
77298;SDS011;66361;52.034;20.656;2023-10-31T02:41:00;15.25;;;10.77;;
77298;SDS011;66361;52.034;20.656;2023-10-31T02:45:04;15.70;;;11.00;;
77298;SDS011;66361;52.034;20.656;2023-10-31T02:49:07;16.23;;;10.40;;
77298;SDS011;66361;52.034;20.656;2023-10-31T02:53:11;10.98;;;8.43;;
77298;SDS011;66361;52.034;20.656;2023-10-31T02:57:15;12.98;;;9.07;;
77298;SDS011;66361;52.034;20.656;2023-10-31T03:01:19;12.20;;;8.90;;
77298;SDS011;66361;52.034;20.656;2023-10-31T03:05:22;11.80;;;9.50;;
77298;SDS011;66361;52.034;20.656;2023-10-31T03:09:25;11.23;;;8.30;;
77298;SDS011;66361;52.034;20.656;2023-10-31T03:13:29;14.90;;;8.68;;
77298;SDS011;66361;52.034;20.656;2023-10-31T03:17:32;12.43;;;7.72;;
77298;SDS011;66361;52.034;20.656;2023-10-31T03:21:35;13.25;;;8.48;;
77298;SDS011;66361;52.034;20.656;2023-10-31T03:25:39;11.15;;;8.23;;
77298;SDS011;66361;52.034;20.656;2023-10-31T03:29:43;13.02;;;6.95;;
77298;SDS011;66361;52.034;20.656;2023-10-31T03:33:47;9.85;;;6.88;;
77298;SDS011;66361;52.034;20.656;2023-10-31T03:37:50;10.75;;;6.50;;
77298;SDS011;66361;52.034;20.656;2023-10-31T03:45:59;11.50;;;6.60;;
77298;SDS011;66361;52.034;20.656;2023-10-31T03:50:03;9.27;;;6.65;;
77298;SDS011;66361;52.034;20.656;2023-10-31T03:54:16;9.60;;;6.40;;
77298;SDS011;66361;52.034;20.656;2023-10-31T03:58:19;9.10;;;5.13;;
77298;SDS011;66361;52.034;20.656;2023-10-31T04:02:24;11.02;;;6.35;;
77298;SDS011;66361;52.034;20.656;2023-10-31T04:06:27;9.70;;;5.47;;
77298;SDS011;66361;52.034;20.656;2023-10-31T04:10:30;6.55;;;4.88;;
77298;SDS011;66361;52.034;20.656;2023-10-31T04:14:33;7.78;;;5.05;;
77298;SDS011;66361;52.034;20.656;2023-10-31T04:18:38;7.13;;;6.10;;
77298;SDS011;66361;52.034;20.656;2023-10-31T04:22:41;5.43;;;4.07;;
77298;SDS011;66361;52.034;20.656;2023-10-31T04:26:44;9.25;;;4.97;;
77298;SDS011;66361;52.034;20.656;2023-10-31T04:30:47;7.80;;;4.63;;
77298;SDS011;66361;52.034;20.656;2023-10-31T04:34:52;10.45;;;7.13;;
77298;SDS011;66361;52.034;20.656;2023-10-31T04:38:55;8.80;;;6.10;;
77298;SDS011;66361;52.034;20.656;2023-10-31T04:47:03;7.35;;;4.35;;
77298;SDS011;66361;52.034;20.656;2023-10-31T04:51:10;5.68;;;4.20;;
77298;SDS011;66361;52.034;20.656;2023-10-31T04:55:13;5.75;;;4.65;;
77298;SDS011;66361;52.034;20.656;2023-10-31T04:59:18;7.55;;;5.35;;
77298;SDS011;66361;52.034;20.656;2023-10-31T05:03:21;8.18;;;4.72;;
77298;SDS011;66361;52.034;20.656;2023-10-31T05:07:28;6.18;;;4.63;;
77298;SDS011;66361;52.034;20.656;2023-10-31T05:11:30;6.25;;;3.80;;
77298;SDS011;66361;52.034;20.656;2023-10-31T05:15:33;5.85;;;4.63;;
77298;SDS011;66361;52.034;20.656;2023-10-31T05:19:36;7.05;;;4.20;;
77298;SDS011;66361;52.034;20.656;2023-10-31T05:23:41;7.63;;;4.72;;
77298;SDS011;66361;52.034;20.656;2023-10-31T05:27:43;8.57;;;3.65;;
77298;SDS011;66361;52.034;20.656;2023-10-31T05:31:46;7.45;;;4.82;;
77298;SDS011;66361;52.034;20.656;2023-10-31T05:35:52;7.90;;;4.25;;
77298;SDS011;66361;52.034;20.656;2023-10-31T05:43:58;6.18;;;4.30;;
77298;SDS011;66361;52.034;20.656;2023-10-31T05:48:02;6.03;;;3.85;;
77298;SDS011;66361;52.034;20.656;2023-10-31T05:52:08;5.75;;;3.95;;
77298;SDS011;66361;52.034;20.656;2023-10-31T05:56:13;7.28;;;3.88;;
77298;SDS011;66361;52.034;20.656;2023-10-31T06:00:17;6.43;;;3.95;;
77298;SDS011;66361;52.034;20.656;2023-10-31T06:04:21;7.68;;;4.55;;
77298;SDS011;66361;52.034;20.656;2023-10-31T06:08:25;7.03;;;4.30;;
77298;SDS011;66361;52.034;20.656;2023-10-31T06:12:31;4.78;;;3.70;;
77298;SDS011;66361;52.034;20.656;2023-10-31T06:16:39;6.32;;;3.90;;
77298;SDS011;66361;52.034;20.656;2023-10-31T06:20:59;7.13;;;3.97;;
77298;SDS011;66361;52.034;20.656;2023-10-31T06:29:06;5.90;;;4.05;;
77298;SDS011;66361;52.034;20.656;2023-10-31T06:33:29;7.47;;;3.85;;
77298;SDS011;66361;52.034;20.656;2023-10-31T06:37:32;7.72;;;4.32;;
77298;SDS011;66361;52.034;20.656;2023-10-31T06:41:35;8.75;;;4.10;;
77298;SDS011;66361;52.034;20.656;2023-10-31T06:45:39;8.48;;;4.43;;
77298;SDS011;66361;52.034;20.656;2023-10-31T06:49:42;6.85;;;4.10;;
77298;SDS011;66361;52.034;20.656;2023-10-31T06:53:45;4.60;;;3.85;;
77298;SDS011;66361;52.034;20.656;2023-10-31T06:57:48;8.55;;;5.43;;
77298;SDS011;66361;52.034;20.656;2023-10-31T07:05:55;5.35;;;3.80;;
77298;SDS011;66361;52.034;20.656;2023-10-31T07:09:58;6.07;;;4.95;;
77298;SDS011;66361;52.034;20.656;2023-10-31T07:14:01;5.78;;;4.78;;
77298;SDS011;66361;52.034;20.656;2023-10-31T07:18:06;4.13;;;3.58;;
77298;SDS011;66361;52.034;20.656;2023-10-31T07:22:09;6.30;;;4.72;;
77298;SDS011;66361;52.034;20.656;2023-10-31T07:26:13;6.40;;;4.07;;
77298;SDS011;66361;52.034;20.656;2023-10-31T07:30:16;6.15;;;4.13;;
77298;SDS011;66361;52.034;20.656;2023-10-31T07:34:21;4.63;;;3.88;;
77298;SDS011;66361;52.034;20.656;2023-10-31T07:38:24;6.90;;;4.03;;
77298;SDS011;66361;52.034;20.656;2023-10-31T07:42:27;6.63;;;4.40;;
77298;SDS011;66361;52.034;20.656;2023-10-31T07:46:30;5.22;;;4.63;;
77298;SDS011;66361;52.034;20.656;2023-10-31T07:50:35;5.32;;;4.05;;
77298;SDS011;66361;52.034;20.656;2023-10-31T07:54:42;9.07;;;4.65;;
77298;SDS011;66361;52.034;20.656;2023-10-31T07:58:45;3.92;;;3.22;;
77298;SDS011;66361;52.034;20.656;2023-10-31T08:02:48;6.32;;;3.85;;
77298;SDS011;66361;52.034;20.656;2023-10-31T08:10:54;7.70;;;4.22;;
77298;SDS011;66361;52.034;20.656;2023-10-31T08:14:58;7.78;;;4.75;;
77298;SDS011;66361;52.034;20.656;2023-10-31T08:19:01;8.75;;;6.63;;
77298;SDS011;66361;52.034;20.656;2023-10-31T08:23:07;5.03;;;4.47;;
77298;SDS011;66361;52.034;20.656;2023-10-31T08:27:10;9.75;;;4.43;;
77298;SDS011;66361;52.034;20.656;2023-10-31T08:31:16;7.32;;;4.13;;
77298;SDS011;66361;52.034;20.656;2023-10-31T08:35:19;7.68;;;3.53;;
77298;SDS011;66361;52.034;20.656;2023-10-31T08:39:23;4.68;;;3.38;;
77298;SDS011;66361;52.034;20.656;2023-10-31T08:43:26;5.18;;;3.50;;
77298;SDS011;66361;52.034;20.656;2023-10-31T08:47:29;5.05;;;3.65;;
77298;SDS011;66361;52.034;20.656;2023-10-31T08:51:32;4.05;;;3.25;;
77298;SDS011;66361;52.034;20.656;2023-10-31T08:55:36;5.07;;;3.60;;
77298;SDS011;66361;52.034;20.656;2023-10-31T08:59:39;4.13;;;3.63;;
77298;SDS011;66361;52.034;20.656;2023-10-31T09:07:45;4.45;;;3.15;;
77298;SDS011;66361;52.034;20.656;2023-10-31T09:11:50;7.70;;;3.65;;
77298;SDS011;66361;52.034;20.656;2023-10-31T09:15:53;5.82;;;3.67;;
77298;SDS011;66361;52.034;20.656;2023-10-31T09:19:56;5.63;;;4.00;;
77298;SDS011;66361;52.034;20.656;2023-10-31T09:24:00;6.13;;;4.20;;
77298;SDS011;66361;52.034;20.656;2023-10-31T09:28:06;7.07;;;3.80;;
77298;SDS011;66361;52.034;20.656;2023-10-31T09:32:09;7.70;;;3.92;;
77298;SDS011;66361;52.034;20.656;2023-10-31T09:36:12;6.57;;;4.22;;
77298;SDS011;66361;52.034;20.656;2023-10-31T09:40:16;8.23;;;4.43;;
77298;SDS011;66361;52.034;20.656;2023-10-31T09:44:20;4.85;;;3.47;;
77298;SDS011;66361;52.034;20.656;2023-10-31T09:48:23;7.00;;;3.83;;
77298;SDS011;66361;52.034;20.656;2023-10-31T09:52:26;6.15;;;4.00;;
77298;SDS011;66361;52.034;20.656;2023-10-31T09:56:29;6.38;;;3.13;;
77298;SDS011;66361;52.034;20.656;2023-10-31T10:00:37;4.60;;;3.20;;
77298;SDS011;66361;52.034;20.656;2023-10-31T10:04:41;4.88;;;3.10;;
77298;SDS011;66361;52.034;20.656;2023-10-31T10:08:44;5.10;;;3.08;;
77298;SDS011;66361;52.034;20.656;2023-10-31T10:12:47;5.95;;;3.63;;
77298;SDS011;66361;52.034;20.656;2023-10-31T10:16:52;6.10;;;3.20;;
77298;SDS011;66361;52.034;20.656;2023-10-31T10:20:55;4.00;;;2.97;;
77298;SDS011;66361;52.034;20.656;2023-10-31T10:24:58;6.90;;;3.00;;
77298;SDS011;66361;52.034;20.656;2023-10-31T10:29:01;7.03;;;3.33;;
77298;SDS011;66361;52.034;20.656;2023-10-31T10:33:06;4.93;;;2.80;;
77298;SDS011;66361;52.034;20.656;2023-10-31T10:37:09;3.67;;;2.60;;
77298;SDS011;66361;52.034;20.656;2023-10-31T10:41:13;5.90;;;3.20;;
77298;SDS011;66361;52.034;20.656;2023-10-31T10:45:19;5.85;;;3.45;;
77298;SDS011;66361;52.034;20.656;2023-10-31T10:49:24;5.47;;;3.05;;
77298;SDS011;66361;52.034;20.656;2023-10-31T10:53:30;3.83;;;3.22;;
77298;SDS011;66361;52.034;20.656;2023-10-31T10:57:42;5.50;;;2.80;;
77298;SDS011;66361;52.034;20.656;2023-10-31T11:01:51;5.07;;;2.92;;
77298;SDS011;66361;52.034;20.656;2023-10-31T11:05:56;4.55;;;2.80;;
77298;SDS011;66361;52.034;20.656;2023-10-31T11:10:00;4.38;;;2.78;;
77298;SDS011;66361;52.034;20.656;2023-10-31T11:14:06;6.57;;;3.22;;
77298;SDS011;66361;52.034;20.656;2023-10-31T11:18:11;5.07;;;3.20;;
77298;SDS011;66361;52.034;20.656;2023-10-31T11:22:18;6.00;;;3.30;;
77298;SDS011;66361;52.034;20.656;2023-10-31T11:26:25;5.35;;;3.53;;
77298;SDS011;66361;52.034;20.656;2023-10-31T11:30:29;5.25;;;3.50;;
77298;SDS011;66361;52.034;20.656;2023-10-31T11:34:32;5.20;;;3.55;;
77298;SDS011;66361;52.034;20.656;2023-10-31T11:38:37;4.22;;;2.80;;
77298;SDS011;66361;52.034;20.656;2023-10-31T11:42:40;4.03;;;2.90;;
77298;SDS011;66361;52.034;20.656;2023-10-31T11:46:43;3.83;;;2.85;;
77298;SDS011;66361;52.034;20.656;2023-10-31T11:50:51;3.67;;;3.08;;
77298;SDS011;66361;52.034;20.656;2023-10-31T11:54:58;4.05;;;2.63;;
77298;SDS011;66361;52.034;20.656;2023-10-31T11:59:02;4.45;;;2.63;;
77298;SDS011;66361;52.034;20.656;2023-10-31T12:03:08;3.95;;;2.67;;
77298;SDS011;66361;52.034;20.656;2023-10-31T12:07:12;3.55;;;2.35;;
77298;SDS011;66361;52.034;20.656;2023-10-31T12:11:17;2.42;;;2.15;;
77298;SDS011;66361;52.034;20.656;2023-10-31T12:15:22;2.00;;;1.80;;
77298;SDS011;66361;52.034;20.656;2023-10-31T12:19:26;3.92;;;2.22;;
77298;SDS011;66361;52.034;20.656;2023-10-31T12:23:30;1.85;;;1.60;;
77298;SDS011;66361;52.034;20.656;2023-10-31T12:27:44;2.35;;;1.90;;
77298;SDS011;66361;52.034;20.656;2023-10-31T12:31:48;4.05;;;1.80;;
77298;SDS011;66361;52.034;20.656;2023-10-31T12:35:56;3.60;;;2.00;;
77298;SDS011;66361;52.034;20.656;2023-10-31T12:40:00;4.90;;;2.28;;
77298;SDS011;66361;52.034;20.656;2023-10-31T12:44:06;3.70;;;2.03;;
77298;SDS011;66361;52.034;20.656;2023-10-31T12:48:11;2.58;;;2.13;;
77298;SDS011;66361;52.034;20.656;2023-10-31T12:52:15;2.17;;;1.80;;
77298;SDS011;66361;52.034;20.656;2023-10-31T13:00:42;3.05;;;2.33;;
77298;SDS011;66361;52.034;20.656;2023-10-31T13:04:47;2.65;;;2.45;;
77298;SDS011;66361;52.034;20.656;2023-10-31T13:08:50;3.15;;;2.25;;
77298;SDS011;66361;52.034;20.656;2023-10-31T13:12:53;4.10;;;2.60;;
77298;SDS011;66361;52.034;20.656;2023-10-31T13:16:59;5.45;;;2.72;;
77298;SDS011;66361;52.034;20.656;2023-10-31T13:21:04;4.72;;;3.90;;
77298;SDS011;66361;52.034;20.656;2023-10-31T13:25:08;3.65;;;3.25;;
77298;SDS011;66361;52.034;20.656;2023-10-31T13:29:12;6.82;;;3.95;;
77298;SDS011;66361;52.034;20.656;2023-10-31T13:37:20;3.00;;;2.13;;
77298;SDS011;66361;52.034;20.656;2023-10-31T13:41:23;3.88;;;3.58;;
77298;SDS011;66361;52.034;20.656;2023-10-31T13:45:27;3.22;;;2.55;;
77298;SDS011;66361;52.034;20.656;2023-10-31T13:49:31;5.05;;;3.30;;
77298;SDS011;66361;52.034;20.656;2023-10-31T13:53:35;3.60;;;3.08;;
77298;SDS011;66361;52.034;20.656;2023-10-31T13:57:39;3.17;;;2.75;;
77298;SDS011;66361;52.034;20.656;2023-10-31T14:01:42;4.07;;;2.50;;
77298;SDS011;66361;52.034;20.656;2023-10-31T14:05:48;2.60;;;2.22;;
77298;SDS011;66361;52.034;20.656;2023-10-31T14:09:51;3.00;;;2.70;;
77298;SDS011;66361;52.034;20.656;2023-10-31T14:13:56;3.65;;;2.65;;
77298;SDS011;66361;52.034;20.656;2023-10-31T14:18:04;3.53;;;2.50;;
77298;SDS011;66361;52.034;20.656;2023-10-31T14:22:11;3.10;;;2.80;;
77298;SDS011;66361;52.034;20.656;2023-10-31T14:26:14;5.25;;;4.75;;
77298;SDS011;66361;52.034;20.656;2023-10-31T14:30:17;4.47;;;3.55;;
77298;SDS011;66361;52.034;20.656;2023-10-31T14:34:20;3.78;;;3.38;;
77298;SDS011;66361;52.034;20.656;2023-10-31T14:38:25;4.68;;;3.60;;
77298;SDS011;66361;52.034;20.656;2023-10-31T14:42:28;5.78;;;3.50;;
77298;SDS011;66361;52.034;20.656;2023-10-31T14:46:31;5.90;;;4.15;;
77298;SDS011;66361;52.034;20.656;2023-10-31T14:50:34;5.32;;;3.20;;
77298;SDS011;66361;52.034;20.656;2023-10-31T14:58:41;3.15;;;2.47;;
77298;SDS011;66361;52.034;20.656;2023-10-31T15:02:45;3.60;;;2.83;;
77298;SDS011;66361;52.034;20.656;2023-10-31T15:06:48;4.43;;;3.08;;
77298;SDS011;66361;52.034;20.656;2023-10-31T15:10:53;6.82;;;3.42;;
77298;SDS011;66361;52.034;20.656;2023-10-31T15:14:57;3.95;;;2.60;;
77298;SDS011;66361;52.034;20.656;2023-10-31T15:19:00;3.05;;;2.72;;
77298;SDS011;66361;52.034;20.656;2023-10-31T15:23:03;4.18;;;3.20;;
77298;SDS011;66361;52.034;20.656;2023-10-31T15:27:08;3.10;;;2.40;;
77298;SDS011;66361;52.034;20.656;2023-10-31T15:31:30;3.33;;;2.42;;
77298;SDS011;66361;52.034;20.656;2023-10-31T15:35:33;5.03;;;2.83;;
77298;SDS011;66361;52.034;20.656;2023-10-31T15:39:37;3.15;;;2.78;;
77298;SDS011;66361;52.034;20.656;2023-10-31T15:43:42;4.28;;;3.08;;
77298;SDS011;66361;52.034;20.656;2023-10-31T15:47:46;3.20;;;2.35;;
77298;SDS011;66361;52.034;20.656;2023-10-31T15:51:49;3.85;;;2.28;;
77298;SDS011;66361;52.034;20.656;2023-10-31T15:55:52;4.78;;;2.50;;
77298;SDS011;66361;52.034;20.656;2023-10-31T15:59:56;3.40;;;3.10;;
77298;SDS011;66361;52.034;20.656;2023-10-31T16:04:03;4.03;;;3.03;;
77298;SDS011;66361;52.034;20.656;2023-10-31T16:08:06;4.47;;;3.58;;
77298;SDS011;66361;52.034;20.656;2023-10-31T16:12:09;5.03;;;4.43;;
77298;SDS011;66361;52.034;20.656;2023-10-31T16:20:16;7.68;;;4.93;;
77298;SDS011;66361;52.034;20.656;2023-10-31T16:24:20;6.53;;;3.83;;
77298;SDS011;66361;52.034;20.656;2023-10-31T16:28:23;6.20;;;5.05;;
77298;SDS011;66361;52.034;20.656;2023-10-31T16:32:27;6.22;;;3.95;;
77298;SDS011;66361;52.034;20.656;2023-10-31T16:36:31;6.60;;;4.00;;
77298;SDS011;66361;52.034;20.656;2023-10-31T16:40:34;8.40;;;4.28;;
77298;SDS011;66361;52.034;20.656;2023-10-31T16:44:37;7.88;;;7.07;;
77298;SDS011;66361;52.034;20.656;2023-10-31T16:48:42;5.00;;;4.03;;
77298;SDS011;66361;52.034;20.656;2023-10-31T16:52:46;5.93;;;4.10;;
77298;SDS011;66361;52.034;20.656;2023-10-31T16:56:49;4.95;;;4.22;;
77298;SDS011;66361;52.034;20.656;2023-10-31T17:00:52;4.35;;;3.70;;
77298;SDS011;66361;52.034;20.656;2023-10-31T17:04:56;4.20;;;3.08;;
77298;SDS011;66361;52.034;20.656;2023-10-31T17:08:59;4.05;;;2.92;;
77298;SDS011;66361;52.034;20.656;2023-10-31T17:13:02;4.05;;;3.15;;
77298;SDS011;66361;52.034;20.656;2023-10-31T17:17:07;3.80;;;2.95;;
77298;SDS011;66361;52.034;20.656;2023-10-31T17:21:12;3.83;;;2.70;;
77298;SDS011;66361;52.034;20.656;2023-10-31T17:25:15;4.13;;;2.78;;
77298;SDS011;66361;52.034;20.656;2023-10-31T17:29:19;3.92;;;3.20;;
77298;SDS011;66361;52.034;20.656;2023-10-31T17:33:24;4.30;;;2.60;;
77298;SDS011;66361;52.034;20.656;2023-10-31T17:37:30;3.70;;;2.72;;
77298;SDS011;66361;52.034;20.656;2023-10-31T17:41:34;3.88;;;2.70;;
77298;SDS011;66361;52.034;20.656;2023-10-31T17:45:37;4.78;;;3.78;;
77298;SDS011;66361;52.034;20.656;2023-10-31T17:49:40;5.07;;;3.45;;
77298;SDS011;66361;52.034;20.656;2023-10-31T17:57:49;5.45;;;4.00;;
77298;SDS011;66361;52.034;20.656;2023-10-31T18:01:52;4.43;;;3.50;;
77298;SDS011;66361;52.034;20.656;2023-10-31T18:05:55;6.95;;;5.80;;
77298;SDS011;66361;52.034;20.656;2023-10-31T18:10:01;5.05;;;4.03;;
77298;SDS011;66361;52.034;20.656;2023-10-31T18:14:05;6.78;;;4.15;;
77298;SDS011;66361;52.034;20.656;2023-10-31T18:18:09;3.80;;;3.15;;
77298;SDS011;66361;52.034;20.656;2023-10-31T18:22:12;4.28;;;3.08;;
77298;SDS011;66361;52.034;20.656;2023-10-31T18:26:19;4.35;;;3.15;;
77298;SDS011;66361;52.034;20.656;2023-10-31T18:30:22;4.35;;;2.97;;
77298;SDS011;66361;52.034;20.656;2023-10-31T18:34:25;6.35;;;3.42;;
77298;SDS011;66361;52.034;20.656;2023-10-31T18:42:32;6.10;;;3.88;;
77298;SDS011;66361;52.034;20.656;2023-10-31T18:46:36;5.55;;;3.85;;
77298;SDS011;66361;52.034;20.656;2023-10-31T18:50:38;5.15;;;4.05;;
77298;SDS011;66361;52.034;20.656;2023-10-31T18:54:41;5.18;;;3.88;;
77298;SDS011;66361;52.034;20.656;2023-10-31T18:58:46;5.40;;;4.90;;
77298;SDS011;66361;52.034;20.656;2023-10-31T19:03:02;5.97;;;3.70;;
77298;SDS011;66361;52.034;20.656;2023-10-31T19:07:05;5.20;;;4.00;;
77298;SDS011;66361;52.034;20.656;2023-10-31T19:11:09;6.60;;;4.40;;
77298;SDS011;66361;52.034;20.656;2023-10-31T19:15:13;18.92;;;8.65;;
77298;SDS011;66361;52.034;20.656;2023-10-31T19:19:16;16.02;;;10.88;;
77298;SDS011;66361;52.034;20.656;2023-10-31T19:27:22;5.38;;;4.38;;
77298;SDS011;66361;52.034;20.656;2023-10-31T19:31:26;24.88;;;17.45;;
77298;SDS011;66361;52.034;20.656;2023-10-31T19:35:29;23.48;;;14.05;;
77298;SDS011;66361;52.034;20.656;2023-10-31T19:39:36;13.68;;;8.30;;
77298;SDS011;66361;52.034;20.656;2023-10-31T19:43:40;20.95;;;12.55;;
77298;SDS011;66361;52.034;20.656;2023-10-31T19:47:44;15.00;;;9.18;;
77298;SDS011;66361;52.034;20.656;2023-10-31T19:51:47;31.80;;;15.15;;
77298;SDS011;66361;52.034;20.656;2023-10-31T19:55:50;51.20;;;22.63;;
77298;SDS011;66361;52.034;20.656;2023-10-31T19:59:53;25.92;;;14.43;;
77298;SDS011;66361;52.034;20.656;2023-10-31T20:03:58;99.07;;;59.88;;
77298;SDS011;66361;52.034;20.656;2023-10-31T20:08:01;23.77;;;13.70;;
77298;SDS011;66361;52.034;20.656;2023-10-31T20:12:06;55.22;;;29.50;;
77298;SDS011;66361;52.034;20.656;2023-10-31T20:16:09;6.82;;;4.85;;
77298;SDS011;66361;52.034;20.656;2023-10-31T20:20:16;9.80;;;5.63;;
77298;SDS011;66361;52.034;20.656;2023-10-31T20:24:20;49.40;;;20.80;;
77298;SDS011;66361;52.034;20.656;2023-10-31T20:28:23;45.08;;;16.85;;
77298;SDS011;66361;52.034;20.656;2023-10-31T20:32:27;34.35;;;11.48;;
77298;SDS011;66361;52.034;20.656;2023-10-31T20:36:32;56.13;;;16.85;;
77298;SDS011;66361;52.034;20.656;2023-10-31T20:40:35;9.15;;;5.15;;
77298;SDS011;66361;52.034;20.656;2023-10-31T20:44:38;10.35;;;5.35;;
77298;SDS011;66361;52.034;20.656;2023-10-31T20:48:42;12.25;;;5.75;;
77298;SDS011;66361;52.034;20.656;2023-10-31T20:52:46;22.70;;;10.15;;
77298;SDS011;66361;52.034;20.656;2023-10-31T20:56:49;42.60;;;20.38;;
77298;SDS011;66361;52.034;20.656;2023-10-31T21:00:58;14.52;;;8.60;;
77298;SDS011;66361;52.034;20.656;2023-10-31T21:05:01;6.50;;;3.63;;
77298;SDS011;66361;52.034;20.656;2023-10-31T21:09:08;6.43;;;5.50;;
77298;SDS011;66361;52.034;20.656;2023-10-31T21:13:12;5.32;;;3.80;;
77298;SDS011;66361;52.034;20.656;2023-10-31T21:17:15;5.80;;;3.67;;
77298;SDS011;66361;52.034;20.656;2023-10-31T21:21:18;6.45;;;4.53;;
77298;SDS011;66361;52.034;20.656;2023-10-31T21:25:23;4.57;;;3.80;;
77298;SDS011;66361;52.034;20.656;2023-10-31T21:29:27;6.53;;;3.88;;
77298;SDS011;66361;52.034;20.656;2023-10-31T21:33:31;6.32;;;3.28;;
77298;SDS011;66361;52.034;20.656;2023-10-31T21:37:34;5.97;;;4.00;;
77298;SDS011;66361;52.034;20.656;2023-10-31T21:41:39;5.65;;;4.00;;
77298;SDS011;66361;52.034;20.656;2023-10-31T21:45:48;6.95;;;6.25;;
77298;SDS011;66361;52.034;20.656;2023-10-31T21:49:51;8.25;;;6.22;;
77298;SDS011;66361;52.034;20.656;2023-10-31T21:53:54;5.30;;;3.20;;
77298;SDS011;66361;52.034;20.656;2023-10-31T21:57:59;4.10;;;2.95;;
77298;SDS011;66361;52.034;20.656;2023-10-31T22:02:02;5.30;;;3.17;;
77298;SDS011;66361;52.034;20.656;2023-10-31T22:06:06;4.85;;;3.15;;
77298;SDS011;66361;52.034;20.656;2023-10-31T22:10:10;4.38;;;2.95;;
77298;SDS011;66361;52.034;20.656;2023-10-31T22:14:14;4.15;;;2.92;;
77298;SDS011;66361;52.034;20.656;2023-10-31T22:18:18;2.70;;;2.15;;
77298;SDS011;66361;52.034;20.656;2023-10-31T22:22:22;4.35;;;2.30;;
77298;SDS011;66361;52.034;20.656;2023-10-31T22:30:30;2.80;;;2.20;;
77298;SDS011;66361;52.034;20.656;2023-10-31T22:34:33;4.43;;;2.22;;
77298;SDS011;66361;52.034;20.656;2023-10-31T22:38:37;3.78;;;2.38;;
77298;SDS011;66361;52.034;20.656;2023-10-31T22:42:39;4.28;;;2.25;;
77298;SDS011;66361;52.034;20.656;2023-10-31T22:46:44;3.97;;;2.38;;
77298;SDS011;66361;52.034;20.656;2023-10-31T22:50:47;3.42;;;2.40;;
77298;SDS011;66361;52.034;20.656;2023-10-31T22:54:51;3.83;;;2.47;;
77298;SDS011;66361;52.034;20.656;2023-10-31T22:58:54;4.63;;;2.40;;
77298;SDS011;66361;52.034;20.656;2023-10-31T23:07:03;4.80;;;2.45;;
77298;SDS011;66361;52.034;20.656;2023-10-31T23:11:06;3.00;;;2.65;;
77298;SDS011;66361;52.034;20.656;2023-10-31T23:15:12;3.92;;;2.65;;
77298;SDS011;66361;52.034;20.656;2023-10-31T23:19:16;3.47;;;2.45;;
77298;SDS011;66361;52.034;20.656;2023-10-31T23:23:19;3.20;;;2.50;;
77298;SDS011;66361;52.034;20.656;2023-10-31T23:27:24;3.58;;;2.45;;
77298;SDS011;66361;52.034;20.656;2023-10-31T23:31:27;3.70;;;2.50;;
77298;SDS011;66361;52.034;20.656;2023-10-31T23:35:32;3.88;;;3.17;;
77298;SDS011;66361;52.034;20.656;2023-10-31T23:39:35;4.00;;;2.92;;
77298;SDS011;66361;52.034;20.656;2023-10-31T23:47:40;3.92;;;2.38;;
77298;SDS011;66361;52.034;20.656;2023-10-31T23:51:45;3.35;;;1.88;;
77298;SDS011;66361;52.034;20.656;2023-10-31T23:55:48;4.00;;;3.15;;
77298;SDS011;66361;52.034;20.656;2023-10-31T23:59:50;3.13;;;2.55;;
